AFR213 EDDF-EGKK
Flight info
| Callsign | AFR213 |
|---|---|
| Flight time | N/A |
| Altitude | 36000 |
| Route | OBOKA5G/25C OBOKA Z29 TORNU DCT BREDA DCT VICOT DCT GALSO Q63 ARREK Y4 TEBRA DCT ABTUM DCT ARNUN DCT LARCK |
| Aircraft | B77W/H-SDE1E2E3FGHIJ2J3J4J5M1RWXY/LB1D1 |
Departure
| Time | 2026-05-07 15:30 |
|---|---|
| Airport | Frankfurt Main Airport (EDDF) |
Arrival
| Time | N/A |
|---|---|
| Airport | London Gatwick Airport (EGKK) |
| Time | Latitude | Longitude | Altitude | Speed | Heading |
|---|---|---|---|---|---|
| 2026-05-07 14:59 | 50.04467 | 8.56420 | 365 ft | 0 kts | 154° |
| 2026-05-07 15:16 | 50.04468 | 8.56420 | 361 ft | 0 kts | 154° |
| 2026-05-07 15:17 | 50.04480 | 8.56410 | 369 ft | 3 kts | 155° |
| 2026-05-07 15:17 | 50.04498 | 8.56398 | 367 ft | 3 kts | 165° |
| 2026-05-07 15:17 | 50.04512 | 8.56395 | 368 ft | 2 kts | 208° |
| 2026-05-07 15:18 | 50.04519 | 8.56404 | 367 ft | 1 kts | 238° |
| 2026-05-07 15:18 | 50.04524 | 8.56416 | 367 ft | 1 kts | 247° |
| 2026-05-07 15:18 | 50.04527 | 8.56429 | 368 ft | 1 kts | 250° |
| 2026-05-07 15:18 | 50.04530 | 8.56441 | 366 ft | 1 kts | 251° |
| 2026-05-07 15:19 | 50.04531 | 8.56446 | 363 ft | 0 kts | 251° |
| 2026-05-07 15:22 | 50.04530 | 8.56444 | 363 ft | 1 kts | 251° |
| 2026-05-07 15:22 | 50.04519 | 8.56395 | 368 ft | 8 kts | 249° |
| 2026-05-07 15:22 | 50.04496 | 8.56301 | 364 ft | 10 kts | 250° |
| 2026-05-07 15:23 | 50.04473 | 8.56204 | 365 ft | 9 kts | 250° |
| 2026-05-07 15:23 | 50.04451 | 8.56111 | 368 ft | 8 kts | 250° |
| 2026-05-07 15:23 | 50.04435 | 8.56059 | 367 ft | 5 kts | 236° |
| 2026-05-07 15:23 | 50.04402 | 8.56035 | 366 ft | 5 kts | 186° |
| 2026-05-07 15:24 | 50.04363 | 8.56045 | 365 ft | 7 kts | 163° |
| 2026-05-07 15:24 | 50.04319 | 8.56071 | 364 ft | 7 kts | 153° |
| 2026-05-07 15:24 | 50.04297 | 8.56135 | 368 ft | 7 kts | 100° |
| 2026-05-07 15:24 | 50.04274 | 8.56207 | 364 ft | 8 kts | 138° |
| 2026-05-07 15:25 | 50.04221 | 8.56251 | 366 ft | 9 kts | 157° |
| 2026-05-07 15:25 | 50.04164 | 8.56290 | 364 ft | 9 kts | 144° |
| 2026-05-07 15:25 | 50.04152 | 8.56382 | 363 ft | 9 kts | 76° |
| 2026-05-07 15:25 | 50.04175 | 8.56478 | 366 ft | 9 kts | 69° |
| 2026-05-07 15:26 | 50.04199 | 8.56582 | 366 ft | 13 kts | 70° |
| 2026-05-07 15:26 | 50.04240 | 8.56751 | 365 ft | 20 kts | 69° |
| 2026-05-07 15:26 | 50.04292 | 8.56969 | 368 ft | 24 kts | 70° |
| 2026-05-07 15:26 | 50.04352 | 8.57223 | 368 ft | 27 kts | 70° |
| 2026-05-07 15:27 | 50.04420 | 8.57505 | 368 ft | 28 kts | 70° |
| 2026-05-07 15:27 | 50.04487 | 8.57790 | 371 ft | 28 kts | 70° |
| 2026-05-07 15:27 | 50.04548 | 8.58046 | 370 ft | 22 kts | 70° |
| 2026-05-07 15:27 | 50.04602 | 8.58268 | 378 ft | 17 kts | 70° |
| 2026-05-07 15:28 | 50.04636 | 8.58414 | 375 ft | 13 kts | 70° |
| 2026-05-07 15:28 | 50.04648 | 8.58524 | 377 ft | 10 kts | 107° |
| 2026-05-07 15:28 | 50.04616 | 8.58575 | 377 ft | 0 kts | 157° |
| 2026-05-07 15:28 | 50.04615 | 8.58575 | 377 ft | 0 kts | 157° |
| 2026-05-07 15:29 | 50.04573 | 8.58601 | 379 ft | 12 kts | 158° |
| 2026-05-07 15:29 | 50.04517 | 8.58622 | 379 ft | 8 kts | 189° |
| 2026-05-07 15:29 | 50.04476 | 8.58542 | 378 ft | 12 kts | 248° |
| 2026-05-07 15:30 | 50.04426 | 8.58325 | 377 ft | 44 kts | 249° |
| 2026-05-07 15:30 | 50.04214 | 8.57448 | 373 ft | 127 kts | 249° |
| 2026-05-07 15:30 | 50.03846 | 8.55888 | 618 ft | 166 kts | 250° |
| 2026-05-07 15:30 | 50.03454 | 8.54242 | 1461 ft | 167 kts | 251° |
| 2026-05-07 15:31 | 50.03180 | 8.53074 | 1940 ft | 172 kts | 252° |
| 2026-05-07 15:31 | 50.02753 | 8.51268 | 2521 ft | 188 kts | 255° |
| 2026-05-07 15:31 | 50.02706 | 8.49140 | 2768 ft | 210 kts | 280° |
| 2026-05-07 15:31 | 50.02908 | 8.46763 | 3111 ft | 239 kts | 278° |
| 2026-05-07 15:32 | 50.03043 | 8.44158 | 3879 ft | 244 kts | 269° |
| 2026-05-07 15:32 | 50.02793 | 8.41516 | 4629 ft | 248 kts | 259° |
| 2026-05-07 15:32 | 50.02436 | 8.38885 | 5011 ft | 250 kts | 259° |
| 2026-05-07 15:32 | 50.02084 | 8.36216 | 5140 ft | 253 kts | 260° |
| 2026-05-07 15:33 | 50.01750 | 8.33560 | 5587 ft | 247 kts | 260° |
| 2026-05-07 15:33 | 50.01426 | 8.30915 | 6120 ft | 252 kts | 260° |
| 2026-05-07 15:33 | 50.01269 | 8.28196 | 6557 ft | 257 kts | 279° |
| 2026-05-07 15:33 | 50.01877 | 8.25626 | 7025 ft | 254 kts | 296° |
| 2026-05-07 15:34 | 50.02640 | 8.23104 | 7556 ft | 261 kts | 294° |
| 2026-05-07 15:34 | 50.03398 | 8.20519 | 8086 ft | 265 kts | 294° |
| 2026-05-07 15:34 | 50.04159 | 8.17906 | 8592 ft | 265 kts | 294° |
| 2026-05-07 15:34 | 50.04918 | 8.15298 | 9084 ft | 267 kts | 294° |
| 2026-05-07 15:35 | 50.05716 | 8.12636 | 9799 ft | 275 kts | 297° |
| 2026-05-07 15:35 | 50.06656 | 8.09995 | 10478 ft | 285 kts | 300° |
| 2026-05-07 15:35 | 50.07702 | 8.07216 | 10751 ft | 312 kts | 300° |
| 2026-05-07 15:35 | 50.08854 | 8.04186 | 10977 ft | 340 kts | 300° |
| 2026-05-07 15:36 | 50.10101 | 8.00893 | 11395 ft | 361 kts | 300° |
| 2026-05-07 15:36 | 50.11383 | 7.97484 | 12266 ft | 369 kts | 300° |
| 2026-05-07 15:36 | 50.12692 | 7.93985 | 13277 ft | 376 kts | 300° |
| 2026-05-07 15:36 | 50.14013 | 7.90431 | 14324 ft | 381 kts | 299° |
| 2026-05-07 15:37 | 50.15349 | 7.86826 | 15308 ft | 386 kts | 299° |
| 2026-05-07 15:37 | 50.16697 | 7.83172 | 16263 ft | 392 kts | 299° |
| 2026-05-07 15:37 | 50.18067 | 7.79452 | 17232 ft | 398 kts | 299° |
| 2026-05-07 15:37 | 50.19450 | 7.75685 | 18211 ft | 403 kts | 299° |
| 2026-05-07 15:38 | 50.20851 | 7.71865 | 19023 ft | 409 kts | 299° |
| 2026-05-07 15:38 | 50.22270 | 7.67988 | 19860 ft | 413 kts | 299° |
| 2026-05-07 15:38 | 50.23701 | 7.64074 | 20717 ft | 417 kts | 299° |
| 2026-05-07 15:38 | 50.25149 | 7.60106 | 21517 ft | 422 kts | 299° |
| 2026-05-07 15:39 | 50.26610 | 7.56097 | 22291 ft | 428 kts | 299° |
| 2026-05-07 15:39 | 50.28088 | 7.52033 | 23093 ft | 432 kts | 298° |
| 2026-05-07 15:39 | 50.29580 | 7.47926 | 23838 ft | 436 kts | 298° |
| 2026-05-07 15:39 | 50.31080 | 7.43789 | 24497 ft | 440 kts | 298° |
| 2026-05-07 15:40 | 50.32597 | 7.39602 | 25144 ft | 444 kts | 298° |
| 2026-05-07 15:40 | 50.34124 | 7.35377 | 25795 ft | 447 kts | 298° |
| 2026-05-07 15:40 | 50.35661 | 7.31117 | 26402 ft | 451 kts | 298° |
| 2026-05-07 15:40 | 50.37206 | 7.26830 | 26984 ft | 455 kts | 298° |
| 2026-05-07 15:41 | 50.38747 | 7.22546 | 27563 ft | 459 kts | 298° |
| 2026-05-07 15:41 | 50.40318 | 7.18169 | 28124 ft | 462 kts | 298° |
| 2026-05-07 15:41 | 50.41898 | 7.13762 | 28643 ft | 466 kts | 298° |
| 2026-05-07 15:41 | 50.43487 | 7.09321 | 29150 ft | 469 kts | 298° |
| 2026-05-07 15:42 | 50.45090 | 7.04833 | 29600 ft | 473 kts | 298° |
| 2026-05-07 15:42 | 50.46701 | 7.00317 | 30064 ft | 475 kts | 298° |
| 2026-05-07 15:42 | 50.47789 | 6.97263 | 30385 ft | 475 kts | 298° |
| 2026-05-07 15:42 | 50.49915 | 6.91282 | 31130 ft | 472 kts | 298° |
| 2026-05-07 15:43 | 50.51511 | 6.86782 | 31677 ft | 470 kts | 298° |
| 2026-05-07 15:43 | 50.53100 | 6.82296 | 32200 ft | 469 kts | 298° |
| 2026-05-07 15:43 | 50.54685 | 6.77810 | 32710 ft | 468 kts | 298° |
| 2026-05-07 15:43 | 50.56263 | 6.73337 | 33217 ft | 467 kts | 298° |
| 2026-05-07 15:44 | 50.57834 | 6.68877 | 33751 ft | 465 kts | 298° |
| 2026-05-07 15:44 | 50.59396 | 6.64434 | 34215 ft | 464 kts | 298° |
| 2026-05-07 15:44 | 50.60958 | 6.59985 | 34546 ft | 465 kts | 298° |
| 2026-05-07 15:44 | 50.62520 | 6.55527 | 34835 ft | 467 kts | 298° |
| 2026-05-07 15:45 | 50.64091 | 6.51035 | 35149 ft | 467 kts | 298° |
| 2026-05-07 15:45 | 50.65657 | 6.46548 | 35482 ft | 468 kts | 297° |
| 2026-05-07 15:45 | 50.67223 | 6.42054 | 35772 ft | 468 kts | 297° |
| 2026-05-07 15:45 | 50.68795 | 6.37536 | 35983 ft | 472 kts | 297° |
| 2026-05-07 15:46 | 50.73536 | 6.23859 | 36035 ft | 470 kts | 297° |
| 2026-05-07 15:47 | 50.76647 | 6.14848 | 36040 ft | 467 kts | 297° |
| 2026-05-07 15:47 | 50.79748 | 6.05829 | 36047 ft | 467 kts | 297° |
| 2026-05-07 15:48 | 50.82847 | 5.96785 | 36052 ft | 468 kts | 297° |
| 2026-05-07 15:48 | 50.85920 | 5.87784 | 36048 ft | 469 kts | 297° |
| 2026-05-07 15:49 | 50.89013 | 5.78691 | 36049 ft | 469 kts | 297° |
| 2026-05-07 15:49 | 50.92107 | 5.69565 | 36045 ft | 470 kts | 297° |
| 2026-05-07 15:50 | 50.95191 | 5.60432 | 36050 ft | 470 kts | 296° |
| 2026-05-07 15:50 | 50.98273 | 5.51275 | 36057 ft | 470 kts | 296° |
| 2026-05-07 15:51 | 51.01344 | 5.42116 | 36059 ft | 470 kts | 296° |
| 2026-05-07 15:51 | 51.04411 | 5.32935 | 36065 ft | 470 kts | 296° |
| 2026-05-07 15:52 | 51.07470 | 5.23743 | 36072 ft | 470 kts | 296° |
| 2026-05-07 15:52 | 51.10519 | 5.14551 | 36072 ft | 470 kts | 296° |
| 2026-05-07 15:53 | 51.13563 | 5.05337 | 36070 ft | 470 kts | 296° |
| 2026-05-07 15:53 | 51.16596 | 4.96124 | 36072 ft | 470 kts | 296° |
| 2026-05-07 15:54 | 51.19625 | 4.86888 | 36070 ft | 470 kts | 296° |
| 2026-05-07 15:54 | 51.22629 | 4.77694 | 36073 ft | 470 kts | 296° |
| 2026-05-07 15:55 | 51.25641 | 4.68440 | 36077 ft | 470 kts | 296° |
| 2026-05-07 15:55 | 51.28645 | 4.59177 | 36078 ft | 470 kts | 296° |
| 2026-05-07 15:56 | 51.31647 | 4.49885 | 36074 ft | 471 kts | 296° |
| 2026-05-07 15:56 | 51.34427 | 4.40436 | 36073 ft | 469 kts | 287° |
| 2026-05-07 15:57 | 51.35943 | 4.30338 | 36079 ft | 467 kts | 276° |
| 2026-05-07 15:57 | 51.36570 | 4.20006 | 36080 ft | 467 kts | 274° |
| 2026-05-07 15:58 | 51.37119 | 4.09625 | 36067 ft | 467 kts | 274° |
| 2026-05-07 15:58 | 51.37688 | 3.99247 | 36064 ft | 467 kts | 274° |
| 2026-05-07 15:59 | 51.38272 | 3.88884 | 36061 ft | 467 kts | 274° |
| 2026-05-07 15:59 | 51.38851 | 3.78572 | 36055 ft | 467 kts | 274° |
| 2026-05-07 16:00 | 51.39424 | 3.68215 | 36059 ft | 467 kts | 274° |
| 2026-05-07 16:00 | 51.39986 | 3.57866 | 36063 ft | 466 kts | 274° |
| 2026-05-07 16:01 | 51.40538 | 3.47522 | 36063 ft | 466 kts | 274° |
| 2026-05-07 16:01 | 51.41080 | 3.37177 | 36069 ft | 466 kts | 274° |
| 2026-05-07 16:02 | 51.41614 | 3.26826 | 36069 ft | 466 kts | 274° |
| 2026-05-07 16:02 | 51.42137 | 3.16486 | 36077 ft | 466 kts | 273° |
| 2026-05-07 16:03 | 51.42652 | 3.06144 | 36078 ft | 466 kts | 273° |
| 2026-05-07 16:03 | 51.43158 | 2.95798 | 36075 ft | 466 kts | 273° |
| 2026-05-07 16:04 | 51.43655 | 2.85437 | 36076 ft | 466 kts | 273° |
| 2026-05-07 16:04 | 51.44143 | 2.75077 | 36074 ft | 466 kts | 273° |
| 2026-05-07 16:05 | 51.44621 | 2.64727 | 36076 ft | 466 kts | 273° |
| 2026-05-07 16:05 | 51.45088 | 2.54422 | 36072 ft | 466 kts | 273° |
| 2026-05-07 16:06 | 51.45549 | 2.44051 | 36074 ft | 466 kts | 273° |
| 2026-05-07 16:06 | 51.46001 | 2.33679 | 36075 ft | 466 kts | 273° |
| 2026-05-07 16:07 | 51.46443 | 2.23303 | 36078 ft | 466 kts | 272° |
| 2026-05-07 16:07 | 51.46877 | 2.12917 | 36078 ft | 466 kts | 272° |
| 2026-05-07 16:08 | 51.47302 | 2.02526 | 36077 ft | 466 kts | 272° |
| 2026-05-07 16:08 | 51.47716 | 1.92167 | 35908 ft | 464 kts | 272° |
| 2026-05-07 16:08 | 51.47920 | 1.86978 | 35230 ft | 467 kts | 272° |
| 2026-05-07 16:09 | 51.48122 | 1.81792 | 34556 ft | 465 kts | 272° |
| 2026-05-07 16:09 | 51.48322 | 1.76604 | 33695 ft | 465 kts | 272° |
| 2026-05-07 16:09 | 51.48520 | 1.71422 | 32762 ft | 466 kts | 272° |
| 2026-05-07 16:09 | 51.48602 | 1.66244 | 31835 ft | 465 kts | 267° |
| 2026-05-07 16:10 | 51.48277 | 1.61083 | 30903 ft | 465 kts | 260° |
| 2026-05-07 16:10 | 51.47640 | 1.56080 | 30129 ft | 462 kts | 255° |
| 2026-05-07 16:10 | 51.46658 | 1.51142 | 29336 ft | 457 kts | 249° |
| 2026-05-07 16:10 | 51.45535 | 1.46482 | 28694 ft | 450 kts | 249° |
| 2026-05-07 16:11 | 51.44273 | 1.41935 | 28027 ft | 444 kts | 241° |
| 2026-05-07 16:11 | 51.42555 | 1.37859 | 27393 ft | 439 kts | 232° |
| 2026-05-07 16:11 | 51.40540 | 1.34225 | 26761 ft | 435 kts | 225° |
| 2026-05-07 16:11 | 51.39792 | 1.33104 | 26549 ft | 434 kts | 221° |